Time,TemperatureF,DewpointF,PressureIn,WindDirection,WindDirectionDegrees,WindSpeedMPH,WindSpeedGustMPH,Humidity,HourlyPrecipIn,Conditions,Clouds,dailyrainin,SolarRadiationWatts/m^2,SoftwareType,DateUTC
2013-09-26 00:02:00,52.5,48.0,29.92,SW,223,0.0,1.0,84,0.00,,,0.00,0,weatherlink.com 1.10,2013-09-25 22:02:00,
2013-09-26 00:17:00,52.4,48.0,29.91,North,360,0.0,1.0,84,0.00,,,0.00,0,weatherlink.com 1.10,2013-09-25 22:17:00,
2013-09-26 00:32:00,52.9,49.0,29.91,SW,223,0.0,0.0,85,0.00,,,0.00,0,weatherlink.com 1.10,2013-09-25 22:32:00,
2013-09-26 00:47:00,53.5,50.0,29.91,SW,221,0.0,0.0,86,0.00,,,0.00,0,weatherlink.com 1.10,2013-09-25 22:47:00,
2013-09-26 01:02:00,54.0,50.0,29.91,SW,223,0.0,0.0,86,0.00,,,0.00,0,weatherlink.com 1.10,2013-09-25 23:02:00,
2013-09-26 01:17:00,54.3,50.0,29.90,SW,220,0.0,0.0,85,0.00,,,0.00,0,weatherlink.com 1.10,2013-09-25 23:17:00,
2013-09-26 01:32:00,54.7,50.0,29.90,SW,221,0.0,0.0,85,0.00,,,0.00,0,weatherlink.com 1.10,2013-09-25 23:32:00,
2013-09-26 01:47:00,55.0,51.0,29.90,SW,222,0.0,0.0,85,0.00,,,0.00,0,weatherlink.com 1.10,2013-09-25 23:47:00,
2013-09-26 02:02:00,55.3,51.0,29.90,SW,221,0.0,0.0,85,0.00,,,0.00,0,weatherlink.com 1.10,2013-09-26 00:02:00,
2013-09-26 02:17:00,55.4,51.0,29.90,North,360,0.0,0.0,84,0.00,,,0.00,0,weatherlink.com 1.10,2013-09-26 00:17:00,
2013-09-26 02:47:00,55.9,51.0,29.89,SW,221,0.0,0.0,83,0.00,,,0.00,0,weatherlink.com 1.10,2013-09-26 00:47:00,
2013-09-26 03:02:00,56.2,51.0,29.88,SW,223,0.0,0.0,83,0.00,,,0.00,0,weatherlink.com 1.10,2013-09-26 01:02:00,
2013-09-26 03:17:00,56.3,51.0,29.88,North,360,0.0,0.0,83,0.00,,,0.00,0,weatherlink.com 1.10,2013-09-26 01:17:00,
2013-09-26 03:32:00,56.1,51.0,29.87,SW,222,0.0,0.0,82,0.00,,,0.00,0,weatherlink.com 1.10,2013-09-26 01:32:00,
2013-09-26 03:47:00,55.5,49.0,29.86,SW,221,0.0,1.0,80,0.00,,,0.00,0,weatherlink.com 1.10,2013-09-26 01:47:00,
2013-09-26 04:02:00,54.9,49.0,29.86,SW,221,0.0,0.0,79,0.00,,,0.00,0,weatherlink.com 1.10,2013-09-26 02:02:00,
2013-09-26 04:17:00,54.2,48.0,29.86,SW,221,0.0,0.0,80,0.00,,,0.00,0,weatherlink.com 1.10,2013-09-26 02:17:00,
2013-09-26 04:32:00,53.4,48.0,29.86,SW,223,0.0,1.0,81,0.00,,,0.00,0,weatherlink.com 1.10,2013-09-26 02:32:00,
2013-09-26 04:47:00,52.8,47.0,29.86,SW,223,0.0,1.0,82,0.00,,,0.00,0,weatherlink.com 1.10,2013-09-26 02:47:00,
2013-09-26 05:02:00,52.3,47.0,29.85,SW,221,0.0,1.0,83,0.00,,,0.00,0,weatherlink.com 1.10,2013-09-26 03:02:00,
2013-09-26 05:17:00,52.0,47.0,29.86,North,360,0.0,0.0,83,0.00,,,0.00,0,weatherlink.com 1.10,2013-09-26 03:17:00,
2013-09-26 05:32:00,51.9,47.0,29.85,SW,223,0.0,1.0,84,0.00,,,0.00,0,weatherlink.com 1.10,2013-09-26 03:32:00,
2013-09-26 05:47:00,52.2,48.0,29.85,SW,223,0.0,0.0,85,0.00,,,0.00,0,weatherlink.com 1.10,2013-09-26 03:47:00,
2013-09-26 06:02:00,52.4,48.0,29.85,SW,223,0.0,0.0,85,0.00,,,0.00,0,weatherlink.com 1.10,2013-09-26 04:02:00,
2013-09-26 06:17:00,52.5,48.0,29.84,SW,222,0.0,2.0,85,0.00,,,0.00,0,weatherlink.com 1.10,2013-09-26 04:17:00,
2013-09-26 06:32:00,52.4,48.0,29.84,SW,221,0.0,0.0,85,0.00,,,0.00,0,weatherlink.com 1.10,2013-09-26 04:32:00,
2013-09-26 06:47:00,52.2,48.0,29.84,SW,221,0.0,0.0,85,0.00,,,0.00,11,weatherlink.com 1.10,2013-09-26 04:47:00,
2013-09-26 07:02:00,52.4,48.0,29.85,SW,222,0.0,0.0,86,0.00,,,0.00,23,weatherlink.com 1.10,2013-09-26 05:02:00,
2013-09-26 07:18:00,53.1,49.0,29.85,SW,230,1.0,2.0,87,0.00,,,0.00,21,weatherlink.com 1.10,2013-09-26 05:18:00,
2013-09-26 07:32:00,53.8,50.0,29.85,SW,228,0.0,2.0,88,0.00,,,0.00,26,weatherlink.com 1.10,2013-09-26 05:32:00,
2013-09-26 07:48:00,54.2,51.0,29.85,West,263,0.0,3.0,88,0.00,,,0.00,47,weatherlink.com 1.10,2013-09-26 05:48:00,
2013-09-26 08:03:00,54.6,51.0,29.84,North,360,0.0,1.0,88,0.00,,,0.00,40,weatherlink.com 1.10,2013-09-26 06:03:00,
2013-09-26 08:18:00,55.1,52.0,29.84,West,261,0.0,0.0,88,0.00,,,0.00,104,weatherlink.com 1.10,2013-09-26 06:18:00,
2013-09-26 08:47:00,57.2,53.0,29.84,West,262,0.0,1.0,85,0.00,,,0.00,163,weatherlink.com 1.10,2013-09-26 06:47:00,
2013-09-26 09:03:00,59.1,53.0,29.84,North,360,0.0,2.0,81,0.00,,,0.00,163,weatherlink.com 1.10,2013-09-26 07:03:00,
2013-09-26 09:18:00,60.3,54.0,29.86,North,11,1.0,5.0,79,0.00,,,0.00,37,weatherlink.com 1.10,2013-09-26 07:18:00,
2013-09-26 09:33:00,59.8,55.0,29.84,North,5,0.0,1.0,85,0.02,,,0.02,148,weatherlink.com 1.10,2013-09-26 07:33:00,
2013-09-26 10:03:00,60.7,56.0,29.84,NNW,345,0.0,1.0,84,0.02,,,0.02,195,weatherlink.com 1.10,2013-09-26 08:03:00,
2013-09-26 10:33:00,63.4,56.0,29.84,North,360,1.0,2.0,77,0.00,,,0.02,243,weatherlink.com 1.10,2013-09-26 08:33:00,
2013-09-26 10:48:00,65.4,58.0,29.84,WNW,302,1.0,3.0,76,0.00,,,0.02,225,weatherlink.com 1.10,2013-09-26 08:48:00,
2013-09-26 11:03:00,65.4,57.0,29.83,WNW,302,0.0,1.0,75,0.00,,,0.02,216,weatherlink.com 1.10,2013-09-26 09:03:00,
2013-09-26 11:18:00,66.9,59.0,29.83,NNW,348,4.0,4.0,75,0.00,,,0.02,264,weatherlink.com 1.10,2013-09-26 09:18:00,
2013-09-26 11:33:00,66.6,58.0,29.83,North,9,0.0,4.0,74,0.00,,,0.02,283,weatherlink.com 1.10,2013-09-26 09:33:00,
2013-09-26 11:48:00,67.6,59.0,29.82,North,5,0.0,2.0,75,0.00,,,0.02,269,weatherlink.com 1.10,2013-09-26 09:48:00,
2013-09-26 12:03:00,69.0,60.0,29.82,WNW,302,0.0,1.0,73,0.00,,,0.02,306,weatherlink.com 1.10,2013-09-26 10:03:00,
2013-09-26 12:18:00,70.7,61.0,29.82,NW,320,0.0,3.0,71,0.00,,,0.02,366,weatherlink.com 1.10,2013-09-26 10:18:00,
2013-09-26 12:33:00,73.6,60.0,29.81,SSW,212,0.0,5.0,63,0.00,,,0.02,424,weatherlink.com 1.10,2013-09-26 10:33:00,
2013-09-26 12:48:00,75.0,61.0,29.81,North,355,3.0,7.0,61,0.00,,,0.02,250,weatherlink.com 1.10,2013-09-26 10:48:00,
2013-09-26 13:03:00,75.5,60.0,29.81,West,263,1.0,5.0,58,0.00,,,0.02,638,weatherlink.com 1.10,2013-09-26 11:03:00,
2013-09-26 13:19:00,75.8,60.0,29.80,North,5,1.0,7.0,58,0.00,,,0.02,768,weatherlink.com 1.10,2013-09-26 11:19:00,
2013-09-26 13:34:00,76.6,59.0,29.80,North,360,0.0,10.0,54,0.00,,,0.02,394,weatherlink.com 1.10,2013-09-26 11:34:00,
2013-09-26 13:49:00,77.4,59.0,29.80,North,360,0.0,8.0,54,0.00,,,0.02,306,weatherlink.com 1.10,2013-09-26 11:49:00,
2013-09-26 14:04:00,74.4,58.0,29.79,North,360,0.0,9.0,56,0.00,,,0.02,251,weatherlink.com 1.10,2013-09-26 12:04:00,
2013-09-26 14:19:00,73.4,57.0,29.79,WSW,248,0.0,10.0,57,0.00,,,0.02,188,weatherlink.com 1.10,2013-09-26 12:19:00,
2013-09-26 14:34:00,74.3,57.0,29.80,North,349,4.0,7.0,56,0.00,,,0.02,239,weatherlink.com 1.10,2013-09-26 12:34:00,
2013-09-26 14:49:00,72.7,57.0,29.81,NNW,329,6.0,9.0,58,0.00,,,0.02,39,weatherlink.com 1.10,2013-09-26 12:49:00,
2013-09-26 15:04:00,70.8,56.0,29.81,South,190,0.0,10.0,60,0.00,,,0.02,26,weatherlink.com 1.10,2013-09-26 13:04:00,
2013-09-26 15:19:00,69.6,58.0,29.82,NNW,338,1.0,6.0,67,0.00,,,0.02,63,weatherlink.com 1.10,2013-09-26 13:19:00,
2013-09-26 15:34:00,68.7,59.0,29.82,SW,232,0.0,3.0,71,0.01,,,0.02,47,weatherlink.com 1.10,2013-09-26 13:34:00,
2013-09-26 15:49:00,67.3,58.0,29.81,North,360,0.0,17.0,73,0.02,,,0.03,42,weatherlink.com 1.10,2013-09-26 13:49:00,
2013-09-26 16:04:00,65.1,58.0,29.82,SSW,201,1.0,8.0,77,0.02,,,0.04,37,weatherlink.com 1.10,2013-09-26 14:04:00,
2013-09-26 16:19:00,63.6,57.0,29.81,North,360,2.0,7.0,79,0.05,,,0.06,49,weatherlink.com 1.10,2013-09-26 14:19:00,
2013-09-26 16:34:00,63.0,58.0,29.80,SW,233,0.0,7.0,84,0.04,,,0.06,67,weatherlink.com 1.10,2013-09-26 14:34:00,
2013-09-26 16:49:00,63.1,58.0,29.82,North,360,1.0,9.0,84,0.04,,,0.07,125,weatherlink.com 1.10,2013-09-26 14:49:00,
2013-09-26 17:04:00,63.0,58.0,29.81,North,360,0.0,7.0,84,0.03,,,0.07,69,weatherlink.com 1.10,2013-09-26 15:04:00,
2013-09-26 17:19:00,63.1,58.0,29.81,West,275,1.0,3.0,83,0.01,,,0.07,60,weatherlink.com 1.10,2013-09-26 15:19:00,
2013-09-26 17:34:00,62.6,56.0,29.81,SW,219,0.0,4.0,80,0.01,,,0.07,35,weatherlink.com 1.10,2013-09-26 15:34:00,
2013-09-26 17:49:00,62.1,56.0,29.81,SW,228,0.0,3.0,80,0.00,,,0.07,18,weatherlink.com 1.10,2013-09-26 15:49:00,
2013-09-26 18:04:00,61.7,56.0,29.82,WSW,257,0.0,2.0,81,0.00,,,0.07,9,weatherlink.com 1.10,2013-09-26 16:04:00,
2013-09-26 18:19:00,61.4,56.0,29.82,WSW,249,0.0,1.0,81,0.00,,,0.07,5,weatherlink.com 1.10,2013-09-26 16:19:00,
2013-09-26 18:34:00,61.1,55.0,29.82,North,360,0.0,2.0,81,0.00,,,0.07,0,weatherlink.com 1.10,2013-09-26 16:34:00,
2013-09-26 18:49:00,61.3,55.0,29.83,NNE,21,0.0,3.0,81,0.00,,,0.07,0,weatherlink.com 1.10,2013-09-26 16:49:00,
2013-09-26 19:04:00,61.4,56.0,29.84,North,360,0.0,4.0,81,0.00,,,0.07,0,weatherlink.com 1.10,2013-09-26 17:04:00,
2013-09-26 19:19:00,61.3,55.0,29.85,WSW,244,0.0,4.0,81,0.00,,,0.07,0,weatherlink.com 1.10,2013-09-26 17:19:00,
2013-09-26 19:34:00,61.3,56.0,29.85,North,360,0.0,2.0,82,0.00,,,0.07,0,weatherlink.com 1.10,2013-09-26 17:34:00,
2013-09-26 19:49:00,61.3,56.0,29.86,West,259,0.0,3.0,82,0.00,,,0.07,0,weatherlink.com 1.10,2013-09-26 17:49:00,
2013-09-26 20:04:00,61.6,56.0,29.86,WNW,283,0.0,3.0,82,0.00,,,0.07,0,weatherlink.com 1.10,2013-09-26 18:04:00,
2013-09-26 20:34:00,61.2,56.0,29.88,West,265,0.0,1.0,82,0.00,,,0.07,0,weatherlink.com 1.10,2013-09-26 18:34:00,
2013-09-26 20:49:00,60.9,56.0,29.88,SW,225,0.0,2.0,83,0.00,,,0.07,0,weatherlink.com 1.10,2013-09-26 18:49:00,
2013-09-26 21:04:00,60.6,55.0,29.89,North,360,0.0,1.0,83,0.00,,,0.07,0,weatherlink.com 1.10,2013-09-26 19:04:00,
2013-09-26 21:19:00,60.2,55.0,29.89,SW,221,0.0,2.0,83,0.00,,,0.07,0,weatherlink.com 1.10,2013-09-26 19:19:00,
2013-09-26 22:19:00,58.3,53.0,29.91,WSW,240,0.0,0.0,82,0.00,,,0.07,0,weatherlink.com 1.10,2013-09-26 20:19:00,
2013-09-26 22:34:00,57.5,52.0,29.92,WSW,238,0.0,1.0,82,0.00,,,0.07,0,weatherlink.com 1.10,2013-09-26 20:34:00,
2013-09-26 22:49:00,56.6,52.0,29.92,WSW,251,0.0,1.0,83,0.00,,,0.07,0,weatherlink.com 1.10,2013-09-26 20:49:00,
2013-09-26 23:04:00,56.2,52.0,29.93,SSW,200,0.0,2.0,86,0.00,,,0.07,0,weatherlink.com 1.10,2013-09-26 21:04:00,
2013-09-26 23:19:00,56.6,53.0,29.94,SW,232,1.0,2.0,86,0.00,,,0.07,0,weatherlink.com 1.10,2013-09-26 21:19:00,
2013-09-26 23:34:00,56.8,53.0,29.94,North,360,3.0,4.0,86,0.00,,,0.07,0,weatherlink.com 1.10,2013-09-26 21:34:00,
2013-09-26 23:49:00,56.7,52.0,29.94,NE,51,0.0,4.0,85,0.00,,,0.07,0,weatherlink.com 1.10,2013-09-26 21:49:00,